createdAt,value
2018-12-16T00:02:01.545Z,-1.40
2018-12-16T00:04:37.440Z,-1.30
2018-12-16T00:07:11.849Z,-1.20
2018-12-16T00:09:46.573Z,-1.10
2018-12-16T00:12:21.692Z,-1.10
2018-12-16T00:14:56.697Z,-1.10
2018-12-16T00:17:31.694Z,-1.10
2018-12-16T00:20:05.289Z,-1.00
2018-12-16T00:22:38.591Z,-0.90
2018-12-16T00:25:15.062Z,-0.90
2018-12-16T00:27:50.144Z,-1.00
2018-12-16T00:30:25.257Z,-1.00
2018-12-16T00:33:00.521Z,-0.90
2018-12-16T00:35:36.981Z,-0.90
2018-12-16T00:38:12.039Z,-1.00
2018-12-16T00:40:48.481Z,-1.00
2018-12-16T00:43:25.064Z,-1.00
2018-12-16T00:46:00.114Z,-1.10
2018-12-16T00:48:35.427Z,-1.20
2018-12-16T00:51:10.021Z,-1.30
2018-12-16T00:53:45.110Z,-1.40
2018-12-16T00:56:21.955Z,-1.10
2018-12-16T00:58:58.094Z,-1.20
2018-12-16T01:01:33.585Z,-1.30
2018-12-16T01:04:08.408Z,-1.40
2018-12-16T01:06:48.981Z,-1.50
2018-12-16T01:09:23.645Z,-1.60
2018-12-16T01:11:58.629Z,-1.70
2018-12-16T01:14:33.346Z,-1.90
2018-12-16T01:17:10.085Z,-1.70
2018-12-16T01:19:46.540Z,-1.60
2018-12-16T01:22:21.555Z,-1.40
2018-12-16T01:24:58.538Z,-1.40
2018-12-16T01:27:33.005Z,-1.40
2018-12-16T01:30:08.180Z,-1.50
2018-12-16T01:32:43.011Z,-1.50
2018-12-16T01:35:21.597Z,-1.50
2018-12-16T01:37:56.498Z,-1.60
2018-12-16T01:40:31.519Z,-1.60
2018-12-16T01:43:06.529Z,-1.50
2018-12-16T01:45:43.369Z,-1.40
2018-12-16T01:48:18.016Z,-1.40
2018-12-16T01:50:53.185Z,-1.30
2018-12-16T01:53:28.439Z,-1.30
2018-12-16T01:56:03.056Z,-1.40
2018-12-16T01:58:38.469Z,-1.50
2018-12-16T02:01:15.471Z,-1.50
2018-12-16T02:03:52.308Z,-1.50
2018-12-16T02:06:26.692Z,-1.60
2018-12-16T02:09:01.423Z,-1.50
2018-12-16T02:11:37.269Z,-1.50
2018-12-16T02:14:12.893Z,-1.50
2018-12-16T02:16:47.665Z,-1.60
2018-12-16T02:19:20.497Z,-1.50
2018-12-16T02:21:55.326Z,-1.40
2018-12-16T02:24:31.789Z,-1.40
2018-12-16T02:27:07.734Z,-1.50
2018-12-16T02:29:43.097Z,-1.50
2018-12-16T02:32:18.036Z,-1.50
2018-12-16T02:34:52.925Z,-1.40
2018-12-16T02:37:29.630Z,-1.40
2018-12-16T02:40:06.646Z,-1.50
2018-12-16T02:42:41.986Z,-1.50
2018-12-16T02:45:16.412Z,-1.40
2018-12-16T02:47:51.695Z,-1.40
2018-12-16T02:50:24.594Z,-1.50
2018-12-16T02:53:04.552Z,-1.40
2018-12-16T02:55:36.773Z,-1.50
2018-12-16T02:58:11.813Z,-1.40
2018-12-16T03:00:46.523Z,-1.40
2018-12-16T03:03:21.501Z,-1.30
2018-12-16T03:05:56.303Z,-1.40
2018-12-16T03:08:31.490Z,-1.30
2018-12-16T03:11:08.033Z,-1.30
2018-12-16T03:13:45.087Z,-1.20
2018-12-16T03:16:20.220Z,-1.20
2018-12-16T03:18:54.878Z,-1.10
2018-12-16T03:21:29.285Z,-1.10
2018-12-16T03:24:07.910Z,-1.00
2018-12-16T03:26:42.571Z,-1.00
2018-12-16T03:29:19.212Z,-1.00
2018-12-16T03:31:54.529Z,-1.00
2018-12-16T03:34:28.494Z,-1.10
2018-12-16T03:37:05.674Z,-1.10
2018-12-16T03:39:40.319Z,-1.20
2018-12-16T03:42:16.665Z,-1.30
2018-12-16T03:44:51.860Z,-1.40
2018-12-16T03:47:28.456Z,-1.40
2018-12-16T03:50:06.902Z,-1.40
2018-12-16T03:52:42.296Z,-1.50
2018-12-16T03:55:19.347Z,-1.60
2018-12-16T03:57:53.999Z,-1.70
2018-12-16T04:00:28.662Z,-1.80
2018-12-16T04:03:05.538Z,-1.90
2018-12-16T04:05:40.207Z,-2.00
2018-12-16T04:08:14.784Z,-2.10
2018-12-16T04:10:49.645Z,-2.20
2018-12-16T04:13:26.582Z,-2.20
2018-12-16T04:16:01.400Z,-2.30
2018-12-16T04:18:36.483Z,-2.20
2018-12-16T04:21:11.459Z,-2.10
2018-12-16T04:23:49.479Z,-2.10
2018-12-16T04:26:23.870Z,-2.30
2018-12-16T04:28:58.941Z,-2.50
2018-12-16T04:31:35.861Z,-2.60
2018-12-16T04:34:10.674Z,-2.80
2018-12-16T04:36:47.113Z,-2.80
2018-12-16T04:39:23.306Z,-2.90
2018-12-16T04:41:59.536Z,-2.80
2018-12-16T04:44:35.456Z,-2.80
2018-12-16T04:47:10.721Z,-2.80
2018-12-16T04:49:45.673Z,-2.90
2018-12-16T04:52:22.319Z,-3.10
2018-12-16T04:54:56.731Z,-3.10
2018-12-16T04:57:33.058Z,-3.10
2018-12-16T05:00:10.758Z,-3.10
2018-12-16T05:02:46.797Z,-3.20
2018-12-16T05:05:21.362Z,-3.20
2018-12-16T05:07:56.972Z,-3.10
2018-12-16T05:10:32.826Z,-3.30
2018-12-16T05:13:07.282Z,-3.10
2018-12-16T05:15:42.217Z,-3.10
2018-12-16T05:18:17.458Z,-3.20
2018-12-16T05:23:50.225Z,-3.50
2018-12-16T05:26:24.634Z,-3.50
2018-12-16T05:28:59.477Z,-3.60
2018-12-16T05:31:36.141Z,-3.50
2018-12-16T05:34:13.201Z,-3.40
2018-12-16T05:36:47.629Z,-3.40
2018-12-16T05:39:22.570Z,-3.30
2018-12-16T05:41:59.026Z,-3.20
2018-12-16T05:44:35.902Z,-3.20
2018-12-16T05:47:11.284Z,-3.20
2018-12-16T05:49:46.240Z,-3.10
2018-12-16T05:52:18.690Z,-3.20
2018-12-16T05:54:54.177Z,-3.30
2018-12-16T05:57:28.951Z,-3.50
2018-12-16T06:00:05.011Z,-3.50
2018-12-16T06:02:39.945Z,-3.60
2018-12-16T06:05:16.661Z,-3.70
2018-12-16T06:07:51.410Z,-3.70
2018-12-16T06:10:27.064Z,-3.80
2018-12-16T06:13:03.027Z,-3.80
2018-12-16T06:15:39.817Z,-3.80
2018-12-16T06:18:16.565Z,-3.80
2018-12-16T06:20:50.737Z,-3.80
2018-12-16T06:23:25.941Z,-3.80
2018-12-16T06:26:02.041Z,-3.80
2018-12-16T06:28:37.539Z,-3.80
2018-12-16T06:31:12.586Z,-3.90
2018-12-16T06:33:45.318Z,-4.00
2018-12-16T06:36:20.232Z,-4.10
2018-12-16T06:38:55.040Z,-4.20
2018-12-16T06:41:30.072Z,-4.20
2018-12-16T06:44:06.652Z,-4.30
2018-12-16T06:46:41.205Z,-4.30
2018-12-16T06:49:16.193Z,-4.40
2018-12-16T06:51:52.946Z,-4.30
2018-12-16T06:54:28.142Z,-4.20
2018-12-16T06:57:03.101Z,-4.20
2018-12-16T06:59:38.404Z,-4.30
2018-12-16T07:02:13.231Z,-4.30
2018-12-16T07:04:49.549Z,-4.20
2018-12-16T07:07:25.438Z,-4.30
2018-12-16T07:09:57.916Z,-4.40
2018-12-16T07:12:33.170Z,-4.30
2018-12-16T07:15:09.866Z,-4.20
2018-12-16T07:17:45.200Z,-4.10
2018-12-16T07:20:19.786Z,-3.90
2018-12-16T07:22:54.481Z,-3.80
2018-12-16T07:25:28.949Z,-3.80
2018-12-16T07:28:03.765Z,-3.80
2018-12-16T07:30:39.149Z,-3.70
2018-12-16T07:33:17.852Z,-3.60
2018-12-16T07:35:54.162Z,-3.60
2018-12-16T07:38:28.352Z,-3.40
2018-12-16T07:41:03.657Z,-3.30
2018-12-16T07:43:40.441Z,-3.20
2018-12-16T07:46:17.992Z,-3.20
2018-12-16T07:48:51.171Z,-3.30
2018-12-16T07:51:23.914Z,-3.40
2018-12-16T07:53:59.307Z,-3.40
2018-12-16T07:59:36.249Z,-3.50
2018-12-16T08:02:11.170Z,-3.60
2018-12-16T08:07:39.529Z,-3.70
2018-12-16T08:10:13.997Z,-3.80
2018-12-16T08:12:49.010Z,-4.00
2018-12-16T08:15:25.409Z,-3.90
2018-12-16T08:17:59.833Z,-4.00
2018-12-16T08:20:36.179Z,-4.10
2018-12-16T08:23:10.334Z,-4.10
2018-12-16T08:25:45.577Z,-4.20
2018-12-16T08:28:20.053Z,-4.20
2018-12-16T08:30:56.589Z,-4.20
2018-12-16T08:33:31.060Z,-4.20
2018-12-16T08:36:05.724Z,-4.20
2018-12-16T08:38:40.312Z,-4.30
2018-12-16T08:41:15.294Z,-4.30
2018-12-16T08:43:50.178Z,-4.30
2018-12-16T08:46:24.910Z,-4.50
2018-12-16T08:48:59.853Z,-4.50
2018-12-16T08:51:35.000Z,-4.40
2018-12-16T08:54:09.784Z,-4.00
2018-12-16T08:56:44.534Z,-4.00
2018-12-16T08:59:19.786Z,-4.10
2018-12-16T09:01:54.533Z,-4.20
2018-12-16T09:04:31.093Z,-4.30
2018-12-16T09:07:05.602Z,-4.20
2018-12-16T09:09:40.909Z,-4.10
2018-12-16T09:12:19.450Z,-3.90
2018-12-16T09:14:52.886Z,-3.70
2018-12-16T09:17:27.630Z,-3.60
2018-12-16T09:20:04.306Z,-3.30
2018-12-16T09:22:39.641Z,-3.30
2018-12-16T09:25:14.461Z,-3.40
2018-12-16T09:27:50.619Z,-3.50
2018-12-16T09:30:25.301Z,-3.60
2018-12-16T09:33:00.466Z,-4.00
2018-12-16T09:35:35.269Z,-4.30
2018-12-16T09:38:10.089Z,-4.50
2018-12-16T09:40:46.854Z,-4.60
2018-12-16T09:43:21.002Z,-4.80
2018-12-16T09:45:56.185Z,-4.90
2018-12-16T09:48:31.478Z,-5.10
2018-12-16T09:51:07.919Z,-5.10
2018-12-16T09:53:43.366Z,-5.20
2018-12-16T09:56:16.293Z,-5.20
2018-12-16T09:58:54.758Z,-5.30
2018-12-16T10:01:29.434Z,-5.30
2018-12-16T10:04:04.052Z,-5.30
2018-12-16T10:06:41.046Z,-5.20
2018-12-16T10:09:19.404Z,-5.10
2018-12-16T10:11:53.878Z,-5.00
2018-12-16T10:14:28.943Z,-4.80
2018-12-16T10:17:03.939Z,-4.70
2018-12-16T10:19:39.117Z,-4.60
2018-12-16T10:22:14.114Z,-4.50
2018-12-16T10:24:51.399Z,-4.20
2018-12-16T10:27:26.114Z,-4.10
2018-12-16T10:33:03.926Z,-3.90
2018-12-16T10:35:38.766Z,-3.80
2018-12-16T10:38:15.061Z,-3.80
2018-12-16T10:40:53.779Z,-3.70
2018-12-16T10:43:31.850Z,-3.70
2018-12-16T10:46:11.001Z,-3.70
2018-12-16T10:48:46.293Z,-3.60
2018-12-16T10:51:18.840Z,-3.50
2018-12-16T10:53:56.309Z,-3.50
2018-12-16T10:56:32.777Z,-3.50
2018-12-16T10:59:20.224Z,-3.40
2018-12-16T11:01:55.353Z,-3.30
2018-12-16T11:04:31.968Z,-3.30
2018-12-16T11:07:09.142Z,-3.20
2018-12-16T11:12:46.513Z,-3.00
2018-12-16T11:15:23.671Z,-3.00
2018-12-16T11:18:06.148Z,-2.90
2018-12-16T11:23:45.090Z,-3.10
2018-12-16T11:26:20.116Z,-3.10
2018-12-16T11:28:54.815Z,-3.20
2018-12-16T11:31:30.030Z,-3.30
2018-12-16T11:34:05.437Z,-3.30
2018-12-16T11:39:43.143Z,-3.20
2018-12-16T11:42:18.041Z,-3.20
2018-12-16T11:44:52.799Z,-3.20
2018-12-16T11:47:27.452Z,-3.10
2018-12-16T11:50:02.631Z,-3.20
2018-12-16T11:52:37.665Z,-3.20
2018-12-16T11:55:13.126Z,-3.30
2018-12-16T11:57:48.453Z,-3.30
2018-12-16T12:00:25.101Z,-3.30
2018-12-16T12:03:00.337Z,-3.30
2018-12-16T12:05:35.613Z,-3.20
2018-12-16T12:08:11.705Z,-3.20
2018-12-16T12:10:46.317Z,-3.20
2018-12-16T12:13:19.062Z,-3.20
2018-12-16T12:15:54.384Z,-3.20
2018-12-16T12:18:29.232Z,-3.20
2018-12-16T12:21:04.491Z,-3.20
2018-12-16T12:23:41.135Z,-3.20
2018-12-16T12:26:16.433Z,-3.20
2018-12-16T12:28:51.082Z,-3.10
2018-12-16T12:37:31.057Z,-3.00
2018-12-16T12:40:06.564Z,-3.00
2018-12-16T12:42:41.147Z,-3.00
2018-12-16T12:45:15.842Z,-2.90
2018-12-16T12:47:50.868Z,-2.90
2018-12-16T12:50:25.784Z,-2.90
2018-12-16T12:53:01.234Z,-2.80
2018-12-16T12:55:36.036Z,-2.90
2018-12-16T12:58:10.940Z,-2.80
2018-12-16T13:00:46.065Z,-2.80
2018-12-16T13:03:28.617Z,-2.80
2018-12-16T13:09:11.445Z,-2.70
2018-12-16T13:11:48.465Z,-2.70
2018-12-16T13:14:23.302Z,-2.60
2018-12-16T13:16:58.253Z,-2.60
2018-12-16T13:19:33.449Z,-2.60
2018-12-16T13:22:10.097Z,-2.50
2018-12-16T13:24:54.673Z,-2.40
2018-12-16T13:27:29.762Z,-2.40
2018-12-16T13:30:08.422Z,-2.30
2018-12-16T13:38:48.617Z,-2.10
2018-12-16T13:41:22.909Z,-2.10
2018-12-16T13:43:59.377Z,-2.00
2018-12-16T13:46:33.751Z,-2.00
2018-12-16T13:49:10.554Z,-1.90
2018-12-16T13:51:43.566Z,-1.90
2018-12-16T13:54:19.129Z,-1.80
2018-12-16T13:56:53.781Z,-1.80
2018-12-16T13:59:34.841Z,-1.70
2018-12-16T14:02:09.881Z,-1.70
2018-12-16T14:04:46.589Z,-1.60
2018-12-16T14:07:21.790Z,-1.50
2018-12-16T14:09:56.801Z,-1.40
2018-12-16T14:12:31.473Z,-1.40
2018-12-16T14:15:06.966Z,-1.30
2018-12-16T14:17:45.651Z,-1.20
2018-12-16T14:20:20.256Z,-1.20
2018-12-16T14:22:55.075Z,-1.10
2018-12-16T14:25:30.293Z,-1.00
2018-12-16T14:28:06.616Z,-1.00
2018-12-16T14:30:41.343Z,-0.90
2018-12-16T14:33:17.539Z,-0.90
2018-12-16T14:35:54.274Z,-0.90
2018-12-16T14:38:28.826Z,-0.90
2018-12-16T14:41:01.861Z,-0.90
2018-12-16T14:43:37.161Z,-0.80
2018-12-16T14:46:11.719Z,-0.80
2018-12-16T14:48:46.959Z,-0.80
2018-12-16T14:51:22.133Z,-0.70
2018-12-16T14:53:57.012Z,-0.70
2018-12-16T14:56:31.930Z,-0.60
2018-12-16T14:59:08.845Z,-0.50
2018-12-16T15:01:44.094Z,-0.40
2018-12-16T15:04:18.789Z,-0.30
2018-12-16T15:06:53.598Z,-0.30
2018-12-16T15:09:26.217Z,-0.20
2018-12-16T15:12:01.529Z,-0.20
2018-12-16T15:14:37.201Z,-0.20
2018-12-16T15:17:14.233Z,-0.10
2018-12-16T15:19:49.005Z,-0.10
2018-12-16T15:22:23.932Z,-0.10
2018-12-16T15:25:00.921Z,-0.10
2018-12-16T15:27:37.063Z,-0.10
2018-12-16T15:30:13.917Z,-0.10
2018-12-16T15:32:48.862Z,-0.10
2018-12-16T15:35:27.489Z,-0.10
2018-12-16T15:38:01.789Z,0.00
2018-12-16T15:40:34.751Z,-0.10
2018-12-16T15:43:10.113Z,-0.10
2018-12-16T15:45:45.152Z,-0.10
2018-12-16T15:48:18.369Z,-0.10
2018-12-16T15:50:55.354Z,0.00
2018-12-16T15:53:28.342Z,0.00
2018-12-16T15:56:09.141Z,0.00
2018-12-16T15:58:38.401Z,0.00
2018-12-16T16:01:13.028Z,0.00
2018-12-16T16:03:48.037Z,0.00
2018-12-16T16:06:22.833Z,0.10
2018-12-16T16:08:59.530Z,0.00
2018-12-16T16:11:36.457Z,0.10
2018-12-16T16:14:13.570Z,0.10
2018-12-16T16:16:48.464Z,0.10
2018-12-16T16:19:24.418Z,0.10
2018-12-16T16:22:01.321Z,0.10
2018-12-16T16:24:36.638Z,0.20
2018-12-16T16:27:11.826Z,0.30
2018-12-16T16:29:46.444Z,0.40
2018-12-16T16:32:22.998Z,0.50
2018-12-16T16:34:58.126Z,0.50
2018-12-16T16:37:35.006Z,0.70
2018-12-16T16:40:11.418Z,0.80
2018-12-16T16:42:48.071Z,1.00
2018-12-16T16:45:23.171Z,1.00
2018-12-16T16:47:58.014Z,1.10
2018-12-16T16:53:35.264Z,1.10
2018-12-16T16:56:10.445Z,1.10
2018-12-16T16:58:49.143Z,1.10
2018-12-16T17:01:24.156Z,1.20
2018-12-16T17:03:58.909Z,1.30
2018-12-16T17:09:31.891Z,1.30
2018-12-16T17:12:06.842Z,1.30
2018-12-16T17:14:42.199Z,1.40
2018-12-16T17:17:16.976Z,1.30
2018-12-16T17:19:51.985Z,1.20
2018-12-16T17:22:26.903Z,1.40
2018-12-16T17:25:03.592Z,1.50
2018-12-16T17:27:40.651Z,1.50
2018-12-16T17:30:15.684Z,1.60
2018-12-16T17:32:50.045Z,1.40
2018-12-16T17:35:26.462Z,1.60
2018-12-16T17:38:01.729Z,1.60
2018-12-16T17:40:36.437Z,1.70
2018-12-16T17:43:13.394Z,1.70
2018-12-16T17:45:48.661Z,1.70
2018-12-16T17:48:23.664Z,1.80
2018-12-16T17:51:00.130Z,1.90
2018-12-16T17:53:35.410Z,2.00
2018-12-16T17:56:12.239Z,1.90
2018-12-16T17:58:47.742Z,1.90
2018-12-16T18:01:22.736Z,1.90
2018-12-16T18:03:59.120Z,1.90
2018-12-16T18:06:34.648Z,1.90
2018-12-16T18:09:10.303Z,1.90
2018-12-16T18:11:47.214Z,1.90
2018-12-16T18:14:24.050Z,2.00
2018-12-16T18:16:59.483Z,2.00
2018-12-16T18:19:34.621Z,2.00
2018-12-16T18:22:14.032Z,2.10
2018-12-16T18:24:46.582Z,2.00
2018-12-16T18:27:30.945Z,2.10
2018-12-16T18:30:12.287Z,2.10
2018-12-16T18:32:47.978Z,2.00
2018-12-16T18:35:25.050Z,2.00
2018-12-16T18:37:59.319Z,2.00
2018-12-16T18:40:34.497Z,2.00
2018-12-16T18:43:09.536Z,1.90
2018-12-16T18:45:44.806Z,1.90
2018-12-16T18:48:20.170Z,1.90
2018-12-16T18:50:54.888Z,1.90
2018-12-16T18:53:30.049Z,1.90
2018-12-16T18:56:06.451Z,1.80
2018-12-16T18:58:43.569Z,1.80
2018-12-16T19:01:18.830Z,1.80
2018-12-16T19:03:53.874Z,1.70
2018-12-16T19:06:29.218Z,1.70
2018-12-16T19:09:04.161Z,1.60
2018-12-16T19:11:39.089Z,1.60
2018-12-16T19:14:11.964Z,1.60
2018-12-16T19:16:46.747Z,1.60
2018-12-16T19:19:23.090Z,1.60
2018-12-16T19:21:57.626Z,1.50
2018-12-16T19:24:34.534Z,1.50
2018-12-16T19:27:11.333Z,1.50
2018-12-16T19:29:48.468Z,1.40
2018-12-16T19:32:26.174Z,1.40
2018-12-16T19:35:00.783Z,1.40
2018-12-16T19:37:35.747Z,1.40
2018-12-16T19:40:10.924Z,1.30
2018-12-16T19:42:49.662Z,1.30
2018-12-16T19:45:25.021Z,1.30
2018-12-16T19:47:59.205Z,1.30
2018-12-16T19:50:34.359Z,1.20
2018-12-16T19:53:09.406Z,1.20
2018-12-16T19:55:46.147Z,1.20
2018-12-16T19:58:21.178Z,1.20
2018-12-16T20:00:56.374Z,1.20
2018-12-16T20:03:32.441Z,1.10
2018-12-16T20:06:11.961Z,1.10
2018-12-16T20:08:46.790Z,1.10
2018-12-16T20:11:23.891Z,1.10
2018-12-16T20:14:01.062Z,1.00
2018-12-16T20:16:37.446Z,1.00
2018-12-16T20:19:13.533Z,1.00
2018-12-16T20:21:50.857Z,0.90
2018-12-16T20:24:27.371Z,0.90
2018-12-16T20:27:04.534Z,0.80
2018-12-16T20:29:39.481Z,0.70
2018-12-16T20:32:14.748Z,0.70
2018-12-16T20:34:49.660Z,0.70
2018-12-16T20:37:24.637Z,0.60
2018-12-16T20:39:59.217Z,0.60
2018-12-16T20:42:34.191Z,0.60
2018-12-16T20:45:08.040Z,0.50
2018-12-16T20:47:43.387Z,0.40
2018-12-16T20:50:20.700Z,0.40
2018-12-16T20:52:57.416Z,0.30
2018-12-16T20:55:30.370Z,0.20
2018-12-16T20:58:07.011Z,0.20
2018-12-16T21:00:42.608Z,0.20
2018-12-16T21:03:15.301Z,0.20
2018-12-16T21:05:52.164Z,0.20
2018-12-16T21:08:26.696Z,0.10
2018-12-16T21:13:35.840Z,-0.10
2018-12-16T21:16:15.477Z,-0.10
2018-12-16T21:18:49.875Z,-0.10
2018-12-16T21:21:25.196Z,-0.10
2018-12-16T21:24:01.446Z,-0.20
2018-12-16T21:26:38.288Z,-0.20
2018-12-16T21:29:14.241Z,-0.20
2018-12-16T21:31:48.493Z,-0.20
2018-12-16T21:34:23.337Z,-0.40
2018-12-16T21:36:59.986Z,-0.50
2018-12-16T21:39:35.191Z,-0.60
2018-12-16T21:42:09.965Z,-0.50
2018-12-16T21:44:44.734Z,-0.70
2018-12-16T21:47:20.864Z,-0.80
2018-12-16T21:50:00.326Z,-0.80
2018-12-16T21:52:41.715Z,-0.80
2018-12-16T21:55:26.457Z,-0.80
2018-12-16T21:58:11.801Z,-0.80
2018-12-16T22:00:47.621Z,-0.90
2018-12-16T22:03:22.738Z,-0.90
2018-12-16T22:05:57.567Z,-0.90
2018-12-16T22:08:31.851Z,-0.80
2018-12-16T22:11:07.742Z,-0.60
2018-12-16T22:13:44.649Z,-0.40
2018-12-16T22:16:20.778Z,-0.40
2018-12-16T22:18:59.322Z,-0.30
2018-12-16T22:21:34.212Z,-0.20
2018-12-16T22:24:09.186Z,-0.20
2018-12-16T22:26:44.005Z,-0.10
2018-12-16T22:29:18.790Z,-0.20
2018-12-16T22:31:55.628Z,-0.20
2018-12-16T22:34:31.722Z,-0.10
2018-12-16T22:37:08.713Z,-0.10
2018-12-16T22:39:43.451Z,-0.10
2018-12-16T22:42:17.893Z,-0.10
2018-12-16T22:44:54.801Z,-0.20
2018-12-16T22:47:31.647Z,-0.20
2018-12-16T22:50:07.487Z,-0.20
2018-12-16T22:52:42.511Z,-0.20
2018-12-16T22:55:17.570Z,-0.20
2018-12-16T22:57:52.693Z,-0.20
2018-12-16T23:00:29.413Z,-0.20
2018-12-16T23:03:02.601Z,-0.20
2018-12-16T23:05:38.980Z,-0.10
2018-12-16T23:08:15.013Z,-0.10
2018-12-16T23:10:50.310Z,-0.10
2018-12-16T23:13:25.365Z,-0.10
2018-12-16T23:16:02.692Z,-0.20
2018-12-16T23:18:38.749Z,-0.20
2018-12-16T23:21:13.926Z,-0.20
2018-12-16T23:23:50.474Z,-0.20
2018-12-16T23:26:26.848Z,-0.20
2018-12-16T23:29:02.097Z,-0.10
2018-12-16T23:31:41.127Z,-0.10
2018-12-16T23:34:14.006Z,-0.10
2018-12-16T23:36:48.643Z,-0.20
2018-12-16T23:39:23.969Z,-0.10
2018-12-16T23:41:58.937Z,-0.10
2018-12-16T23:44:34.191Z,-0.10
2018-12-16T23:47:09.180Z,-0.10
2018-12-16T23:49:43.921Z,-0.10
2018-12-16T23:52:19.976Z,-0.10
2018-12-16T23:54:55.352Z,-0.10
2018-12-16T23:57:30.381Z,-0.10
